createdAt,value
2018-01-27T00:00:52.470Z,7.24
2018-01-27T00:03:20.015Z,7.24
2018-01-27T00:05:47.610Z,7.31
2018-01-27T00:08:15.226Z,7.32
2018-01-27T00:10:42.769Z,7.39
2018-01-27T00:13:10.325Z,7.37
2018-01-27T00:15:38.151Z,7.23
2018-01-27T00:18:05.710Z,7.14
2018-01-27T00:20:33.257Z,7.05
2018-01-27T00:23:01.719Z,7.07
2018-01-27T00:25:29.310Z,7.19
2018-01-27T00:27:56.901Z,7.24
2018-01-27T00:30:24.458Z,7.17
2018-01-27T00:32:52.048Z,7.14
2018-01-27T00:35:19.606Z,7.22
2018-01-27T00:37:47.162Z,7.13
2018-01-27T00:40:14.705Z,7.29
2018-01-27T00:42:42.254Z,7.25
2018-01-27T00:45:09.850Z,7.23
2018-01-27T00:47:37.404Z,7.22
2018-01-27T00:50:04.990Z,7.29
2018-01-27T00:52:32.548Z,7.40
2018-01-27T00:55:00.134Z,7.47
2018-01-27T00:57:27.679Z,7.53
2018-01-27T00:59:55.271Z,7.35
2018-01-27T01:02:22.866Z,7.34
2018-01-27T01:04:50.409Z,7.35
2018-01-27T01:07:18.007Z,7.19
2018-01-27T01:09:45.570Z,7.13
2018-01-27T01:12:13.130Z,7.05
2018-01-27T01:14:40.702Z,7.09
2018-01-27T01:17:08.490Z,7.16
2018-01-27T01:19:36.379Z,7.25
2018-01-27T01:22:03.931Z,7.20
2018-01-27T01:24:31.490Z,7.21
2018-01-27T01:26:59.141Z,7.42
2018-01-27T01:29:26.682Z,7.48
2018-01-27T01:31:54.238Z,7.29
2018-01-27T01:34:22.534Z,7.18
2018-01-27T01:36:50.098Z,7.22
2018-01-27T01:39:17.772Z,7.27
2018-01-27T01:41:45.422Z,7.46
2018-01-27T01:44:18.761Z,7.43
2018-01-27T01:46:46.305Z,7.30
2018-01-27T01:49:24.749Z,7.30
2018-01-27T01:51:52.358Z,7.23
2018-01-27T01:54:19.905Z,7.13
2018-01-27T01:56:47.494Z,7.32
2018-01-27T01:59:15.041Z,7.36
2018-01-27T02:01:42.596Z,7.23
2018-01-27T02:04:10.150Z,7.29
2018-01-27T02:06:37.924Z,7.21
2018-01-27T02:09:05.475Z,7.31
2018-01-27T02:11:33.045Z,7.28
2018-01-27T02:14:01.410Z,7.25
2018-01-27T02:16:29.678Z,7.18
2018-01-27T02:18:58.067Z,7.07
2018-01-27T02:21:26.493Z,7.02
2018-01-27T02:23:54.039Z,7.13
2018-01-27T02:26:21.582Z,7.10
2018-01-27T02:28:49.241Z,7.01
2018-01-27T02:31:16.805Z,6.91
2018-01-27T02:33:44.466Z,6.87
2018-01-27T02:36:12.133Z,6.90
2018-01-27T02:38:39.692Z,6.91
2018-01-27T02:41:07.249Z,6.87
2018-01-27T02:43:34.823Z,6.85
2018-01-27T02:46:02.368Z,6.83
2018-01-27T02:48:29.911Z,7.01
2018-01-27T02:50:57.695Z,7.19
2018-01-27T02:53:26.025Z,7.26
2018-01-27T02:55:53.565Z,7.19
2018-01-27T02:58:21.119Z,7.13
2018-01-27T03:00:48.668Z,7.10
2018-01-27T03:03:16.319Z,7.07
2018-01-27T03:05:43.982Z,7.03
2018-01-27T03:08:11.641Z,7.03
2018-01-27T03:10:40.105Z,7.05
2018-01-27T03:13:09.294Z,7.19
2018-01-27T03:15:36.985Z,7.10
2018-01-27T03:18:04.549Z,7.00
2018-01-27T03:20:32.087Z,6.88
2018-01-27T03:22:59.635Z,7.00
2018-01-27T03:25:27.214Z,7.08
2018-01-27T03:27:54.766Z,7.01
2018-01-27T03:30:22.320Z,6.89
2018-01-27T03:32:50.634Z,6.77
2018-01-27T03:35:18.178Z,6.87
2018-01-27T03:37:45.726Z,6.95
2018-01-27T03:40:13.282Z,6.93
2018-01-27T03:42:40.840Z,6.83
2018-01-27T03:45:08.399Z,6.85
2018-01-27T03:47:36.098Z,6.89
2018-01-27T03:50:04.542Z,7.00
2018-01-27T03:52:32.115Z,7.07
2018-01-27T03:54:59.663Z,6.99
2018-01-27T03:57:27.258Z,6.91
2018-01-27T03:59:54.922Z,6.89
2018-01-27T04:02:22.583Z,6.79
2018-01-27T04:04:50.138Z,6.73
2018-01-27T04:07:17.717Z,6.82
2018-01-27T04:09:45.269Z,7.00
2018-01-27T04:12:13.734Z,6.94
2018-01-27T04:14:42.074Z,7.00
2018-01-27T04:17:09.681Z,6.93
2018-01-27T04:19:37.276Z,6.86
2018-01-27T04:22:04.829Z,6.97
2018-01-27T04:24:32.444Z,6.98
2018-01-27T04:27:00.905Z,7.01
2018-01-27T04:29:29.430Z,6.87
2018-01-27T04:31:57.969Z,6.91
2018-01-27T04:34:26.290Z,7.00
2018-01-27T04:36:54.634Z,6.97
2018-01-27T04:39:22.185Z,6.94
2018-01-27T04:41:50.562Z,6.93
2018-01-27T04:44:18.120Z,7.01
2018-01-27T04:46:45.678Z,7.00
2018-01-27T04:49:14.057Z,6.94
2018-01-27T04:51:42.390Z,6.86
2018-01-27T04:54:10.045Z,6.75
2018-01-27T04:56:38.382Z,6.78
2018-01-27T04:59:06.884Z,6.89
2018-01-27T05:01:35.345Z,6.87
2018-01-27T05:04:03.679Z,6.77
2018-01-27T05:06:32.016Z,6.83
2018-01-27T05:09:00.333Z,6.98
2018-01-27T05:11:27.922Z,6.93
2018-01-27T05:13:55.481Z,6.90
2018-01-27T05:16:24.033Z,6.82
2018-01-27T05:18:51.577Z,6.90
2018-01-27T05:21:19.893Z,6.76
2018-01-27T05:23:47.446Z,6.71
2018-01-27T05:26:15.097Z,6.76
2018-01-27T05:28:42.763Z,6.65
2018-01-27T05:31:11.249Z,6.65
2018-01-27T05:33:38.907Z,6.83
2018-01-27T05:36:07.218Z,6.86
2018-01-27T05:38:34.778Z,6.88
2018-01-27T05:41:02.333Z,6.86
2018-01-27T05:43:29.873Z,6.91
2018-01-27T05:45:57.421Z,6.91
2018-01-27T05:48:24.974Z,6.84
2018-01-27T05:50:52.545Z,6.76
2018-01-27T05:53:20.108Z,6.80
2018-01-27T05:55:47.658Z,6.62
2018-01-27T05:58:15.201Z,6.60
2018-01-27T06:00:42.758Z,6.72
2018-01-27T06:03:10.322Z,6.70
2018-01-27T06:05:37.882Z,6.79
2018-01-27T06:08:05.423Z,6.79
2018-01-27T06:10:32.978Z,6.69
2018-01-27T06:13:00.578Z,6.62
2018-01-27T06:15:28.113Z,6.63
2018-01-27T06:17:56.539Z,6.45
2018-01-27T06:20:24.094Z,6.58
2018-01-27T06:22:51.759Z,6.57
2018-01-27T06:25:19.311Z,6.73
2018-01-27T06:27:46.877Z,6.76
2018-01-27T06:30:14.422Z,6.77
2018-01-27T06:32:41.969Z,6.87
2018-01-27T06:35:09.558Z,6.72
2018-01-27T06:37:37.110Z,6.50
2018-01-27T06:40:04.678Z,6.52
2018-01-27T06:42:32.270Z,6.50
2018-01-27T06:44:59.830Z,6.42
2018-01-27T06:47:27.384Z,6.49
2018-01-27T06:49:54.943Z,6.54
2018-01-27T06:52:22.583Z,6.58
2018-01-27T06:54:50.130Z,6.61
2018-01-27T06:57:17.683Z,6.56
2018-01-27T06:59:45.232Z,6.61
2018-01-27T07:02:12.791Z,6.64
2018-01-27T07:04:40.342Z,6.49
2018-01-27T07:07:07.894Z,6.48
2018-01-27T07:09:35.502Z,6.45
2018-01-27T07:12:03.129Z,6.43
2018-01-27T07:14:31.703Z,6.24
2018-01-27T07:16:59.516Z,6.33
2018-01-27T07:19:27.062Z,6.33
2018-01-27T07:21:54.637Z,6.39
2018-01-27T07:24:22.181Z,6.41
2018-01-27T07:26:49.734Z,6.30
2018-01-27T07:29:17.287Z,6.39
2018-01-27T07:31:44.838Z,6.48
2018-01-27T07:34:12.391Z,6.47
2018-01-27T07:36:39.938Z,6.42
2018-01-27T07:39:07.494Z,6.44
2018-01-27T07:41:35.042Z,6.48
2018-01-27T07:44:02.586Z,6.30
2018-01-27T07:46:30.130Z,6.34
2018-01-27T07:48:57.681Z,6.32
2018-01-27T07:51:25.220Z,6.44
2018-01-27T07:53:52.771Z,6.54
2018-01-27T07:56:20.320Z,6.40
2018-01-27T07:58:47.914Z,6.52
2018-01-27T08:01:15.465Z,6.43
2018-01-27T08:03:43.815Z,6.40
2018-01-27T08:06:12.267Z,6.34
2018-01-27T08:08:40.589Z,6.38
2018-01-27T08:11:08.134Z,6.36
2018-01-27T08:13:35.681Z,6.25
2018-01-27T08:16:03.230Z,6.43
2018-01-27T08:18:31.497Z,6.51
2018-01-27T08:20:59.057Z,6.58
2018-01-27T08:23:26.605Z,6.56
2018-01-27T08:25:54.151Z,6.44
2018-01-27T08:28:21.706Z,6.43
2018-01-27T08:30:49.249Z,6.53
2018-01-27T08:33:16.789Z,6.43
2018-01-27T08:35:44.339Z,6.52
2018-01-27T08:38:11.894Z,6.46
2018-01-27T08:40:39.507Z,6.51
2018-01-27T08:43:07.057Z,6.28
2018-01-27T08:45:35.446Z,6.49
2018-01-27T08:48:03.002Z,6.50
2018-01-27T08:50:30.546Z,6.50
2018-01-27T08:52:58.157Z,6.62
2018-01-27T08:55:25.722Z,6.60
2018-01-27T08:57:53.283Z,6.64
2018-01-27T09:00:21.739Z,6.65
2018-01-27T09:02:49.282Z,6.50
2018-01-27T09:05:16.829Z,6.68
2018-01-27T09:07:44.446Z,6.86
2018-01-27T09:10:12.001Z,6.93
2018-01-27T09:12:39.570Z,6.91
2018-01-27T09:15:07.114Z,6.70
2018-01-27T09:17:34.793Z,6.96
2018-01-27T09:20:02.465Z,6.92
2018-01-27T09:22:30.118Z,6.96
2018-01-27T09:24:57.670Z,7.17
2018-01-27T09:27:25.213Z,7.10
2018-01-27T09:29:52.807Z,7.18
2018-01-27T09:32:20.358Z,7.30
2018-01-27T09:34:48.041Z,7.25
2018-01-27T09:37:15.581Z,7.28
2018-01-27T09:39:43.145Z,7.24
2018-01-27T09:42:10.684Z,7.08
2018-01-27T09:44:38.233Z,7.15
2018-01-27T09:47:05.775Z,7.11
2018-01-27T09:49:33.339Z,7.00
2018-01-27T09:52:00.932Z,7.00
2018-01-27T09:54:28.483Z,7.11
2018-01-27T09:56:56.738Z,7.08
2018-01-27T09:59:24.292Z,7.09
2018-01-27T10:01:51.913Z,7.23
2018-01-27T10:04:19.565Z,7.31
2018-01-27T10:06:47.109Z,7.30
2018-01-27T10:09:14.659Z,7.54
2018-01-27T10:11:42.250Z,7.53
2018-01-27T10:14:09.840Z,7.47
2018-01-27T10:16:37.387Z,7.37
2018-01-27T10:19:04.930Z,7.23
2018-01-27T10:21:32.474Z,7.28
2018-01-27T10:24:00.032Z,7.34
2018-01-27T10:26:27.589Z,7.33
2018-01-27T10:28:55.139Z,7.46
2018-01-27T10:31:22.734Z,7.58
2018-01-27T10:33:50.282Z,7.58
2018-01-27T10:36:17.825Z,7.67
2018-01-27T10:38:45.376Z,7.74
2018-01-27T10:41:12.977Z,7.45
2018-01-27T10:43:40.525Z,7.30
2018-01-27T10:46:08.074Z,7.14
2018-01-27T10:48:35.618Z,7.08
2018-01-27T10:51:03.163Z,7.12
2018-01-27T10:53:30.714Z,7.22
2018-01-27T10:55:58.262Z,7.26
2018-01-27T10:58:25.897Z,7.37
2018-01-27T11:00:53.443Z,7.52
2018-01-27T11:03:21.105Z,7.54
2018-01-27T11:05:48.649Z,7.46
2018-01-27T11:08:16.229Z,7.55
2018-01-27T11:10:43.776Z,7.51
2018-01-27T11:13:11.354Z,7.53
2018-01-27T11:15:38.898Z,7.50
2018-01-27T11:18:06.485Z,7.41
2018-01-27T11:20:34.029Z,7.28
2018-01-27T11:23:01.574Z,7.29
2018-01-27T11:25:29.115Z,7.30
2018-01-27T11:27:57.446Z,7.31
2018-01-27T11:30:25.023Z,7.23
2018-01-27T11:32:52.601Z,7.23
2018-01-27T11:35:20.141Z,7.40
2018-01-27T11:37:47.694Z,7.34
2018-01-27T11:40:15.241Z,7.23
2018-01-27T11:42:42.787Z,7.30
2018-01-27T11:45:10.341Z,7.26
2018-01-27T11:47:37.936Z,7.14
2018-01-27T11:50:05.603Z,7.23
2018-01-27T11:52:33.141Z,7.35
2018-01-27T11:55:00.716Z,7.23
2018-01-27T11:57:29.127Z,7.10
2018-01-27T11:59:56.797Z,7.39
2018-01-27T12:02:24.378Z,7.43
2018-01-27T12:04:51.922Z,7.43
2018-01-27T12:07:20.510Z,7.46
2018-01-27T12:09:48.882Z,7.57
2018-01-27T12:12:16.494Z,7.60
2018-01-27T12:14:44.053Z,7.67
2018-01-27T12:17:11.600Z,7.88
2018-01-27T12:19:40.317Z,7.75
2018-01-27T12:22:07.871Z,7.90
2018-01-27T12:24:35.426Z,8.00
2018-01-27T12:27:02.973Z,8.06
2018-01-27T12:29:30.665Z,7.89
2018-01-27T12:31:58.321Z,7.74
2018-01-27T12:34:25.872Z,7.72
2018-01-27T12:36:53.423Z,7.65
2018-01-27T12:39:20.977Z,7.64
2018-01-27T12:41:48.539Z,7.64
2018-01-27T12:44:16.095Z,7.60
2018-01-27T12:46:43.693Z,7.65
2018-01-27T12:49:11.237Z,7.69
2018-01-27T12:51:38.785Z,7.87
2018-01-27T12:54:06.338Z,7.91
2018-01-27T12:56:33.896Z,8.02
2018-01-27T12:59:01.626Z,8.20
2018-01-27T13:01:29.178Z,8.35
2018-01-27T13:03:56.754Z,8.38
2018-01-27T13:06:24.305Z,8.26
2018-01-27T13:08:51.850Z,7.91
2018-01-27T13:11:19.478Z,7.71
2018-01-27T13:13:47.056Z,7.54
2018-01-27T13:16:14.606Z,7.55
2018-01-27T13:18:42.182Z,7.45
2018-01-27T13:21:09.726Z,7.44
2018-01-27T13:23:37.264Z,7.41
2018-01-27T13:26:04.852Z,7.42
2018-01-27T13:28:32.402Z,7.39
2018-01-27T13:30:59.944Z,7.32
2018-01-27T13:33:27.486Z,7.29
2018-01-27T13:35:55.029Z,7.28
2018-01-27T13:38:22.577Z,7.28
2018-01-27T13:40:51.053Z,7.18
2018-01-27T13:43:18.601Z,7.27
2018-01-27T13:45:46.150Z,7.22
2018-01-27T13:48:13.725Z,7.21
2018-01-27T13:50:41.273Z,7.20
2018-01-27T13:53:08.846Z,7.00
2018-01-27T13:55:36.386Z,6.94
2018-01-27T13:58:03.935Z,7.04
2018-01-27T14:00:31.485Z,7.02
2018-01-27T14:02:59.030Z,6.93
2018-01-27T14:05:26.619Z,6.85
2018-01-27T14:07:54.210Z,6.92
2018-01-27T14:10:22.649Z,7.10
2018-01-27T14:12:50.199Z,7.17
2018-01-27T14:15:17.742Z,7.27
2018-01-27T14:17:45.294Z,7.33
2018-01-27T14:20:13.750Z,7.21
2018-01-27T14:22:41.294Z,7.32
2018-01-27T14:25:08.846Z,7.37
2018-01-27T14:27:36.385Z,7.22
2018-01-27T14:30:03.922Z,7.23
2018-01-27T14:32:31.467Z,7.13
2018-01-27T14:34:59.005Z,7.46
2018-01-27T14:37:26.668Z,7.43
2018-01-27T14:39:54.213Z,7.34
2018-01-27T14:42:21.761Z,7.22
2018-01-27T14:44:49.310Z,7.22
2018-01-27T14:47:16.857Z,7.19
2018-01-27T14:49:44.407Z,7.15
2018-01-27T14:52:12.667Z,7.19
2018-01-27T14:54:40.213Z,7.12
2018-01-27T14:57:07.938Z,7.12
2018-01-27T14:59:35.486Z,6.98
2018-01-27T15:02:03.035Z,6.93
2018-01-27T15:04:31.404Z,7.04
2018-01-27T15:06:58.952Z,7.11
2018-01-27T15:09:26.526Z,7.02
2018-01-27T15:11:54.982Z,6.94
2018-01-27T15:14:22.525Z,6.87
2018-01-27T15:16:50.073Z,6.99
2018-01-27T15:19:17.622Z,6.82
2018-01-27T15:21:45.231Z,6.69
2018-01-27T15:24:12.769Z,6.59
2018-01-27T15:26:40.313Z,6.56
2018-01-27T15:29:07.860Z,6.53
2018-01-27T15:31:35.440Z,6.38
2018-01-27T15:34:02.995Z,6.33
2018-01-27T15:36:30.541Z,6.33
2018-01-27T15:38:58.154Z,6.29
2018-01-27T15:41:25.699Z,6.27
2018-01-27T15:43:54.077Z,6.26
2018-01-27T15:46:22.630Z,6.20
2018-01-27T15:48:50.180Z,6.17
2018-01-27T15:51:17.725Z,6.14
2018-01-27T15:53:46.205Z,6.16
2018-01-27T15:56:13.749Z,6.08
2018-01-27T15:58:42.084Z,6.20
2018-01-27T16:01:09.648Z,6.13
2018-01-27T16:03:38.310Z,6.16
2018-01-27T16:06:06.034Z,6.09
2018-01-27T16:08:33.579Z,6.06
2018-01-27T16:11:01.149Z,6.03
2018-01-27T16:13:28.702Z,6.02
2018-01-27T16:15:56.954Z,6.07
2018-01-27T16:18:24.508Z,6.04
2018-01-27T16:20:52.131Z,6.05
2018-01-27T16:23:19.768Z,6.00
2018-01-27T16:25:47.441Z,5.97
2018-01-27T16:28:15.113Z,6.05
2018-01-27T16:30:42.661Z,6.01
2018-01-27T16:33:10.201Z,5.95
2018-01-27T16:35:37.745Z,5.92
2018-01-27T16:38:05.422Z,5.91
2018-01-27T16:40:33.002Z,6.01
2018-01-27T16:43:00.555Z,5.94
2018-01-27T16:45:28.094Z,5.99
2018-01-27T16:47:55.644Z,5.88
2018-01-27T16:50:23.193Z,5.84
2018-01-27T16:52:50.826Z,5.85
2018-01-27T16:55:18.470Z,5.88
2018-01-27T16:57:46.095Z,5.80
2018-01-27T17:00:13.658Z,5.79
2018-01-27T17:02:41.218Z,5.78
2018-01-27T17:05:08.777Z,5.79
2018-01-27T17:07:36.325Z,5.79
2018-01-27T17:10:03.934Z,5.82
2018-01-27T17:12:31.593Z,5.78
2018-01-27T17:14:59.159Z,5.76
2018-01-27T17:17:26.818Z,5.82
2018-01-27T17:19:55.145Z,5.82
2018-01-27T17:22:22.689Z,5.97
2018-01-27T17:24:50.239Z,6.07
2018-01-27T17:27:17.786Z,6.04
2018-01-27T17:29:45.337Z,6.11
2018-01-27T17:32:12.881Z,6.02
2018-01-27T17:34:41.337Z,5.98
2018-01-27T17:37:08.882Z,5.93
2018-01-27T17:39:37.465Z,5.89
2018-01-27T17:42:05.010Z,5.86
2018-01-27T17:44:32.562Z,5.87
2018-01-27T17:47:00.214Z,5.96
2018-01-27T17:49:27.765Z,5.86
2018-01-27T17:51:55.306Z,5.88
2018-01-27T17:54:22.849Z,5.77
2018-01-27T17:56:50.422Z,5.95
2018-01-27T17:59:17.975Z,6.05
2018-01-27T18:01:45.523Z,5.85
2018-01-27T18:04:13.062Z,5.74
2018-01-27T18:06:40.605Z,5.65
2018-01-27T18:09:08.157Z,5.56
2018-01-27T18:11:35.709Z,5.45
2018-01-27T18:14:03.334Z,5.40
2018-01-27T18:16:30.934Z,5.17
2018-01-27T18:18:58.480Z,5.26
2018-01-27T18:21:26.823Z,5.08
2018-01-27T18:23:54.377Z,5.17
2018-01-27T18:26:21.926Z,4.99
2018-01-27T18:28:49.550Z,5.01
2018-01-27T18:31:17.093Z,4.92
2018-01-27T18:33:44.641Z,4.85
2018-01-27T18:36:12.198Z,4.85
2018-01-27T18:38:39.742Z,4.80
2018-01-27T18:41:07.324Z,4.82
2018-01-27T18:43:34.917Z,4.92
2018-01-27T18:46:02.471Z,4.86
2018-01-27T18:48:30.021Z,4.89
2018-01-27T18:50:57.566Z,4.77
2018-01-27T18:53:25.110Z,4.75
2018-01-27T18:55:53.690Z,4.81
2018-01-27T18:58:21.270Z,4.82
2018-01-27T19:00:48.813Z,4.75
2018-01-27T19:03:17.343Z,4.80
2018-01-27T19:05:44.901Z,4.85
2018-01-27T19:08:12.643Z,4.87
2018-01-27T19:10:40.433Z,4.77
2018-01-27T19:13:07.981Z,4.84
2018-01-27T19:15:35.559Z,4.67
2018-01-27T19:18:03.908Z,4.59
2018-01-27T19:20:32.293Z,4.49
2018-01-27T19:23:00.638Z,4.38
2018-01-27T19:25:29.098Z,4.36
2018-01-27T19:27:56.654Z,4.31
2018-01-27T19:30:24.206Z,4.35
2018-01-27T19:32:51.754Z,4.19
2018-01-27T19:35:19.327Z,4.05
2018-01-27T19:37:46.873Z,3.98
2018-01-27T19:40:14.417Z,4.04
2018-01-27T19:42:41.968Z,4.11
2018-01-27T19:45:09.513Z,4.07
2018-01-27T19:47:37.950Z,4.11
2018-01-27T19:50:05.598Z,4.06
2018-01-27T19:52:33.158Z,4.09
2018-01-27T19:55:00.703Z,4.01
2018-01-27T19:57:28.249Z,3.97
2018-01-27T19:59:55.799Z,3.97
2018-01-27T20:02:23.346Z,3.90
2018-01-27T20:04:50.964Z,3.93
2018-01-27T20:07:18.522Z,4.05
2018-01-27T20:09:46.873Z,4.00
2018-01-27T20:12:14.707Z,4.02
2018-01-27T20:14:42.253Z,3.93
2018-01-27T20:17:09.881Z,3.87
2018-01-27T20:19:38.040Z,3.90
2018-01-27T20:22:05.595Z,3.80
2018-01-27T20:24:33.962Z,3.78
2018-01-27T20:27:01.570Z,3.77
2018-01-27T20:29:29.114Z,3.78
2018-01-27T20:31:56.651Z,3.79
2018-01-27T20:34:24.268Z,3.79
2018-01-27T20:36:51.794Z,3.93
2018-01-27T20:39:19.374Z,3.92
2018-01-27T20:41:47.000Z,3.89
2018-01-27T20:44:14.591Z,3.90
2018-01-27T20:46:42.170Z,3.99
2018-01-27T20:49:10.326Z,3.95
2018-01-27T20:51:37.869Z,4.01
2018-01-27T20:54:05.421Z,4.05
2018-01-27T20:56:32.978Z,4.08
2018-01-27T20:59:00.528Z,4.12
2018-01-27T21:01:28.074Z,4.21
2018-01-27T21:03:55.790Z,4.14
2018-01-27T21:06:23.342Z,4.20
2018-01-27T21:08:50.902Z,4.30
2018-01-27T21:11:18.478Z,4.29
2018-01-27T21:13:46.962Z,4.31
2018-01-27T21:16:15.422Z,4.43
2018-01-27T21:18:43.820Z,4.36
2018-01-27T21:21:11.362Z,4.37
2018-01-27T21:23:38.911Z,4.30
2018-01-27T21:26:06.465Z,4.37
2018-01-27T21:28:34.010Z,4.41
2018-01-27T21:31:01.553Z,4.33
2018-01-27T21:33:29.102Z,4.38
2018-01-27T21:35:58.480Z,4.37
2018-01-27T21:38:26.836Z,4.42
2018-01-27T21:40:54.378Z,4.46
2018-01-27T21:43:21.925Z,4.44
2018-01-27T21:45:49.542Z,4.47
2018-01-27T21:48:17.082Z,4.45
2018-01-27T21:50:44.636Z,4.50
2018-01-27T21:53:12.222Z,4.56
2018-01-27T21:55:39.814Z,4.53
2018-01-27T21:58:07.390Z,4.64
2018-01-27T22:00:34.949Z,4.60
2018-01-27T22:03:02.559Z,4.65
2018-01-27T22:05:30.102Z,4.72
2018-01-27T22:07:57.649Z,4.69
2018-01-27T22:10:25.194Z,4.65
2018-01-27T22:12:52.738Z,4.68
2018-01-27T22:15:20.278Z,4.65
2018-01-27T22:17:47.834Z,4.67
2018-01-27T22:20:15.466Z,4.80
2018-01-27T22:22:43.065Z,4.75
2018-01-27T22:25:10.628Z,4.76
2018-01-27T22:27:38.382Z,4.76
2018-01-27T22:30:06.702Z,4.77
2018-01-27T22:32:34.246Z,4.74
2018-01-27T22:35:01.789Z,4.75
2018-01-27T22:37:29.342Z,4.68
2018-01-27T22:39:56.885Z,4.80
2018-01-27T22:42:24.465Z,4.77
2018-01-27T22:44:52.024Z,4.80
2018-01-27T22:47:19.574Z,4.75
2018-01-27T22:49:47.916Z,4.78
2018-01-27T22:52:16.461Z,4.77
2018-01-27T22:54:44.814Z,4.73
2018-01-27T22:57:12.359Z,4.91
2018-01-27T22:59:40.894Z,4.91
2018-01-27T23:02:09.230Z,4.80
2018-01-27T23:04:37.617Z,4.84
2018-01-27T23:07:05.862Z,4.86
2018-01-27T23:09:34.175Z,4.89
2018-01-27T23:12:01.842Z,4.84
2018-01-27T23:14:29.601Z,4.94
2018-01-27T23:16:57.165Z,5.01
2018-01-27T23:19:24.713Z,5.17
2018-01-27T23:21:52.259Z,5.20
2018-01-27T23:24:19.812Z,5.27
2018-01-27T23:26:48.130Z,5.29
2018-01-27T23:29:16.573Z,5.51
2018-01-27T23:31:44.889Z,5.53
2018-01-27T23:34:13.232Z,5.50
2018-01-27T23:36:41.648Z,5.59
2018-01-27T23:39:10.109Z,5.69
2018-01-27T23:41:38.710Z,5.73
2018-01-27T23:44:07.165Z,5.71
2018-01-27T23:46:35.410Z,5.74
2018-01-27T23:49:03.725Z,5.77
2018-01-27T23:51:32.098Z,5.74
2018-01-27T23:53:59.641Z,5.86
2018-01-27T23:56:28.121Z,5.76
2018-01-27T23:58:56.610Z,5.77
